Time;durP1;ratioP1;P1;durP2;ratioP2;P2;SDS_P1;SDS_P2;PMS_P1;PMS_P2;Temp;Humidity;BMP_temperature;BMP_pressure;BME280_temperature;BME280_humidity;BME280_pressure;Samples;Min_cycle;Max_cycle;Signal;HPM_P1;HPM_P2
2022/07/08 00:00:35;;;;;;;4.00;1.90;;;14.80;96.50;;;;;;5125805;27;20031;-64
2022/07/08 00:03:01;;;;;;;5.32;1.80;;;14.90;96.50;;;;;;5123488;27;20027;-63
2022/07/08 00:05:27;;;;;;;4.28;1.80;;;14.80;96.50;;;;;;5121743;27;20098;-63
2022/07/08 00:07:53;;;;;;;4.35;2.20;;;14.80;96.60;;;;;;5117033;27;20423;-64
2022/07/08 00:10:19;;;;;;;5.07;2.50;;;14.80;96.60;;;;;;5114177;28;20073;-63
2022/07/08 00:12:44;;;;;;;3.60;1.98;;;14.80;96.70;;;;;;5115905;27;20058;-64
2022/07/08 00:15:10;;;;;;;3.80;1.90;;;14.80;96.80;;;;;;5116023;28;20059;-63
2022/07/08 00:17:36;;;;;;;4.93;2.35;;;14.70;96.70;;;;;;5116497;27;20024;-63
2022/07/08 00:20:04;;;;;;;4.18;2.00;;;14.70;96.80;;;;;;5117014;27;20024;-63
2022/07/08 00:22:29;;;;;;;4.20;2.00;;;14.70;96.90;;;;;;5116863;27;20106;-64
2022/07/08 00:24:55;;;;;;;3.47;1.80;;;14.70;96.80;;;;;;5116532;28;20094;-64
2022/07/08 00:27:21;;;;;;;5.47;2.25;;;14.70;96.90;;;;;;5116879;27;20031;-64
2022/07/08 00:29:46;;;;;;;4.18;2.20;;;14.70;96.80;;;;;;5116453;27;20051;-64
2022/07/08 00:32:12;;;;;;;4.07;2.20;;;14.70;96.80;;;;;;5119359;27;20023;-64
2022/07/08 00:34:38;;;;;;;3.88;2.22;;;14.70;96.80;;;;;;5122301;27;20111;-63
2022/07/08 00:37:04;;;;;;;5.93;2.30;;;14.70;96.90;;;;;;5115745;27;20024;-64
2022/07/08 00:39:29;;;;;;;5.63;2.22;;;14.70;96.80;;;;;;5125302;27;20027;-64
2022/07/08 00:41:55;;;;;;;5.80;2.33;;;14.70;96.70;;;;;;5113027;27;20028;-63
2022/07/08 00:44:21;;;;;;;4.57;2.08;;;14.70;96.90;;;;;;5121770;27;20428;-64
2022/07/08 00:46:47;;;;;;;6.10;2.50;;;14.70;96.90;;;;;;5123284;27;20337;-64
2022/07/08 00:49:12;;;;;;;5.60;2.17;;;14.70;97.00;;;;;;5130199;27;20081;-64
2022/07/08 00:51:40;;;;;;;4.88;2.10;;;14.70;96.90;;;;;;5118616;27;20042;-64
2022/07/08 00:54:06;;;;;;;5.10;2.33;;;14.70;97.00;;;;;;5116283;28;20027;-64
2022/07/08 00:56:32;;;;;;;4.45;2.00;;;14.60;97.00;;;;;;5114554;27;20111;-64
2022/07/08 00:58:58;;;;;;;4.25;1.90;;;14.60;97.00;;;;;;5117191;27;20026;-64
2022/07/08 01:01:23;;;;;;;4.30;2.03;;;14.60;97.10;;;;;;5118482;27;20036;-64
2022/07/08 01:03:49;;;;;;;4.40;2.03;;;14.60;97.10;;;;;;5124589;27;20050;-63
2022/07/08 01:06:15;;;;;;;8.98;2.90;;;14.70;97.70;;;;;;5116696;27;20312;-64
2022/07/08 01:08:41;;;;;;;6.28;3.08;;;14.60;96.30;;;;;;5117214;27;20051;-64
2022/07/08 01:11:15;;;;;;;9.23;2.70;;;14.50;96.10;;;;;;5116381;27;20028;-63
2022/07/08 01:13:42;;;;;;;9.15;2.80;;;14.40;95.60;;;;;;5119921;27;20076;-63
2022/07/08 01:16:08;;;;;;;10.63;2.97;;;14.20;95.10;;;;;;5119275;27;20063;-63
2022/07/08 01:18:34;;;;;;;10.18;2.60;;;14.10;95.70;;;;;;5114375;27;20454;-64
2022/07/08 01:20:59;;;;;;;12.00;3.00;;;14.00;94.60;;;;;;5115192;27;20024;-63
2022/07/08 01:23:25;;;;;;;9.65;3.00;;;13.90;94.50;;;;;;5113555;28;20028;-64
2022/07/08 01:25:52;;;;;;;7.68;2.70;;;13.90;94.50;;;;;;5115053;27;20016;-63
2022/07/08 01:28:18;;;;;;;12.93;3.20;;;13.90;94.00;;;;;;5122489;27;20354;-64
2022/07/08 01:30:43;;;;;;;12.70;3.17;;;13.80;93.80;;;;;;5116795;27;20072;-63
2022/07/08 01:33:09;;;;;;;10.52;2.72;;;13.80;94.00;;;;;;5116576;27;20063;-63
2022/07/08 01:35:36;;;;;;;12.55;3.22;;;13.70;94.10;;;;;;5116799;27;20023;-62
2022/07/08 01:38:02;;;;;;;10.68;3.47;;;13.70;94.40;;;;;;5110376;28;20032;-63
2022/07/08 01:40:30;;;;;;;14.52;3.58;;;13.60;92.80;;;;;;5113021;27;20443;-62
2022/07/08 01:42:56;;;;;;;12.80;3.60;;;13.50;92.40;;;;;;5118753;27;20122;-63
2022/07/08 01:45:22;;;;;;;9.00;3.30;;;13.50;92.30;;;;;;5114596;27;20193;-65
2022/07/08 01:47:47;;;;;;;10.15;3.30;;;13.40;92.40;;;;;;5116236;27;20076;-64
2022/07/08 01:50:13;;;;;;;11.48;3.33;;;13.40;92.50;;;;;;5113877;27;20321;-64
2022/07/08 01:52:39;;;;;;;12.43;3.67;;;13.40;92.80;;;;;;5107464;27;20027;-64
2022/07/08 01:55:07;;;;;;;14.30;4.13;;;13.30;92.90;;;;;;5115647;28;20034;-64
2022/07/08 01:57:34;;;;;;;15.00;4.85;;;13.30;92.90;;;;;;5103143;27;20035;-63
2022/07/08 02:00:03;;;;;;;10.38;4.95;;;13.30;92.20;;;;;;5123199;27;20035;-64
2022/07/08 02:02:29;;;;;;;13.18;5.00;;;13.30;90.80;;;;;;5123210;27;20031;-63
2022/07/08 02:04:55;;;;;;;8.65;4.57;;;13.20;91.10;;;;;;5116826;27;20019;-64
2022/07/08 02:07:20;;;;;;;14.05;5.00;;;13.20;91.90;;;;;;5115277;27;20701;-64
2022/07/08 02:09:46;;;;;;;17.90;6.03;;;13.10;91.70;;;;;;5112641;27;20016;-63
2022/07/08 02:12:21;;;;;;;14.70;4.72;;;13.10;91.90;;;;;;5113945;27;20127;-63
2022/07/08 02:15:01;;;;;;;16.20;4.43;;;13.10;92.50;;;;;;5117599;27;20509;-63
2022/07/08 02:17:30;;;;;;;11.10;4.75;;;13.10;92.50;;;;;;5115645;27;20016;-63
2022/07/08 02:19:59;;;;;;;16.30;5.47;;;13.10;91.60;;;;;;5114866;28;20055;-63
2022/07/08 02:22:25;;;;;;;11.07;4.70;;;13.10;91.30;;;;;;5111866;28;20119;-64
2022/07/08 02:24:51;;;;;;;15.27;4.82;;;13.10;91.00;;;;;;5119547;27;20020;-63
2022/07/08 02:27:19;;;;;;;14.00;4.82;;;13.00;91.20;;;;;;5109047;28;20024;-64
2022/07/08 02:29:45;;;;;;;14.60;3.88;;;13.00;91.50;;;;;;5117799;28;20336;-63
2022/07/08 02:32:11;;;;;;;15.20;3.83;;;12.90;91.70;;;;;;5109943;28;20024;-63
2022/07/08 02:34:37;;;;;;;11.20;3.80;;;12.90;92.10;;;;;;5113017;27;20031;-63
2022/07/08 02:37:03;;;;;;;16.23;4.10;;;12.80;92.00;;;;;;5123163;27;20405;-63
2022/07/08 02:39:29;;;;;;;10.05;4.30;;;12.80;92.20;;;;;;5131410;27;20019;-63
2022/07/08 02:41:54;;;;;;;14.00;3.63;;;12.70;92.50;;;;;;5121601;27;20384;-64
2022/07/08 02:44:20;;;;;;;11.00;3.40;;;12.60;92.60;;;;;;5125757;27;20040;-64
2022/07/08 02:46:46;;;;;;;12.38;4.25;;;12.60;92.70;;;;;;5122350;27;20031;-63
2022/07/08 02:49:12;;;;;;;13.35;4.18;;;12.60;92.80;;;;;;5119447;27;20043;-64
2022/07/08 02:51:38;;;;;;;12.77;4.10;;;12.50;93.10;;;;;;5124881;27;20027;-63
2022/07/08 02:54:07;;;;;;;10.63;3.80;;;12.50;93.30;;;;;;5119367;27;20416;-63
2022/07/08 02:56:33;;;;;;;12.80;4.25;;;12.50;93.70;;;;;;5116691;27;20039;-64
2022/07/08 02:59:00;;;;;;;12.27;4.00;;;12.50;93.30;;;;;;5124364;27;20319;-64
2022/07/08 03:01:26;;;;;;;15.65;4.05;;;12.50;93.30;;;;;;5117520;27;20032;-63
2022/07/08 03:03:51;;;;;;;12.73;4.03;;;12.40;93.50;;;;;;5115008;27;20743;-64
2022/07/08 03:06:17;;;;;;;11.57;4.07;;;12.40;93.60;;;;;;5120231;27;20065;-63
2022/07/08 03:08:43;;;;;;;14.50;4.43;;;12.40;93.90;;;;;;5117522;27;20031;-64
2022/07/08 03:11:10;;;;;;;10.68;4.40;;;12.40;93.90;;;;;;5117999;27;20016;-63
2022/07/08 03:13:36;;;;;;;12.00;3.70;;;12.40;94.00;;;;;;5120513;27;20027;-64
2022/07/08 03:16:03;;;;;;;13.05;3.88;;;12.40;93.80;;;;;;5119016;27;20042;-63
2022/07/08 03:18:30;;;;;;;13.88;4.53;;;12.40;94.10;;;;;;5118216;27;20055;-63
2022/07/08 03:20:56;;;;;;;15.68;4.07;;;12.40;94.30;;;;;;5120827;27;20301;-64
2022/07/08 03:23:22;;;;;;;13.77;3.90;;;12.40;94.20;;;;;;5122635;27;20031;-63
2022/07/08 03:25:48;;;;;;;15.60;4.03;;;12.30;94.40;;;;;;5121134;27;20065;-63
2022/07/08 03:28:14;;;;;;;15.75;4.53;;;12.30;94.30;;;;;;5120875;27;20031;-63
2022/07/08 03:30:40;;;;;;;10.88;3.88;;;12.30;94.40;;;;;;5101966;27;20040;-63
2022/07/08 03:33:06;;;;;;;13.77;4.13;;;12.30;94.50;;;;;;5120263;27;20110;-63
2022/07/08 03:35:31;;;;;;;11.75;3.80;;;12.30;94.40;;;;;;5122471;27;20043;-64
2022/07/08 03:37:57;;;;;;;13.52;4.22;;;12.30;94.70;;;;;;5114559;27;20027;-63
2022/07/08 03:43:07;;;;;;;10.68;3.63;;;12.30;94.50;;;;;;5115806;27;20402;-63
2022/07/08 03:45:34;;;;;;;12.73;4.25;;;12.30;94.70;;;;;;5118319;27;20043;-64
2022/07/08 03:48:00;;;;;;;12.25;4.43;;;12.30;94.70;;;;;;5115059;27;20102;-63
2022/07/08 03:50:27;;;;;;;11.35;3.72;;;12.20;94.70;;;;;;5113974;27;20043;-62
2022/07/08 03:52:53;;;;;;;10.27;3.90;;;12.20;94.70;;;;;;5112394;27;20443;-63
2022/07/08 03:55:21;;;;;;;10.30;3.55;;;12.20;95.00;;;;;;5115645;27;20063;-63
2022/07/08 03:57:47;;;;;;;15.88;4.57;;;12.20;94.70;;;;;;5114620;27;20416;-64
2022/07/08 04:00:13;;;;;;;14.98;3.95;;;12.20;94.70;;;;;;5120341;27;20046;-63
2022/07/08 04:02:39;;;;;;;12.10;3.63;;;12.20;95.00;;;;;;5118483;27;20027;-64
2022/07/08 04:05:05;;;;;;;8.52;3.70;;;12.20;95.00;;;;;;5115774;27;20027;-63
2022/07/08 04:07:32;;;;;;;10.93;3.47;;;12.20;94.90;;;;;;5114652;27;20117;-64
2022/07/08 04:09:58;;;;;;;16.45;3.97;;;12.30;95.10;;;;;;5128945;27;20026;-63
2022/07/08 04:12:24;;;;;;;14.38;4.05;;;12.20;95.10;;;;;;5112154;27;20019;-63
2022/07/08 04:14:49;;;;;;;13.85;4.40;;;12.20;94.70;;;;;;5114697;27;20032;-63
2022/07/08 04:17:15;;;;;;;13.20;3.88;;;12.20;94.90;;;;;;5116906;27;20028;-64
2022/07/08 04:19:41;;;;;;;12.90;3.92;;;12.20;94.90;;;;;;5114224;27;20035;-63
2022/07/08 04:22:06;;;;;;;16.08;4.40;;;12.30;94.70;;;;;;5119773;27;20031;-64
2022/07/08 04:24:32;;;;;;;12.40;3.78;;;12.30;94.70;;;;;;5117406;27;20080;-64
2022/07/08 04:26:57;;;;;;;13.32;3.65;;;12.20;94.70;;;;;;5112159;27;20039;-62
2022/07/08 04:29:23;;;;;;;10.10;3.78;;;12.30;94.90;;;;;;5121140;27;20020;-63
2022/07/08 04:31:49;;;;;;;10.10;3.38;;;12.30;94.70;;;;;;5123800;27;20394;-62
2022/07/08 04:34:15;;;;;;;13.48;3.97;;;12.40;94.90;;;;;;5123194;27;20082;-63
2022/07/08 04:36:40;;;;;;;9.27;3.65;;;12.40;94.40;;;;;;5122341;27;20111;-63
2022/07/08 04:39:06;;;;;;;11.38;3.80;;;12.40;94.50;;;;;;5121742;27;20059;-65
2022/07/08 04:41:31;;;;;;;13.48;4.32;;;12.40;94.50;;;;;;5126436;27;20110;-65
2022/07/08 04:43:57;;;;;;;13.60;4.30;;;12.40;94.30;;;;;;5118574;27;20045;-63
2022/07/08 04:46:23;;;;;;;9.93;3.83;;;12.50;94.60;;;;;;5123235;27;20038;-64
2022/07/08 04:48:48;;;;;;;11.55;3.70;;;12.50;94.40;;;;;;5117250;27;20086;-64
2022/07/08 04:51:14;;;;;;;8.90;3.10;;;12.60;94.30;;;;;;5113309;27;20361;-63
2022/07/08 04:53:40;;;;;;;12.93;3.75;;;12.70;94.30;;;;;;5112711;28;20043;-64
2022/07/08 04:56:06;;;;;;;14.07;3.75;;;12.70;93.90;;;;;;5113831;27;20154;-62
2022/07/08 04:58:31;;;;;;;13.55;4.68;;;12.80;94.30;;;;;;5108633;27;20028;-63
2022/07/08 05:00:57;;;;;;;11.07;3.33;;;12.70;93.60;;;;;;5122675;27;20438;-63
2022/07/08 05:03:22;;;;;;;14.18;5.07;;;12.70;93.90;;;;;;5122076;27;20081;-64
2022/07/08 05:05:49;;;;;;;12.43;3.60;;;12.70;93.60;;;;;;5120321;27;20024;-64
2022/07/08 05:08:14;;;;;;;14.50;3.75;;;12.70;93.80;;;;;;5115421;27;20031;-63
2022/07/08 05:10:40;;;;;;;11.48;3.50;;;12.80;93.60;;;;;;5121532;27;20023;-64
2022/07/08 05:13:07;;;;;;;10.98;3.20;;;12.70;93.80;;;;;;5116988;27;20042;-64
2022/07/08 05:15:33;;;;;;;11.95;3.50;;;12.70;93.70;;;;;;5117161;27;20035;-63
2022/07/08 05:17:59;;;;;;;12.48;3.60;;;12.70;94.00;;;;;;5113668;27;20032;-63
2022/07/08 05:20:25;;;;;;;16.27;3.50;;;12.80;93.70;;;;;;5116031;27;20033;-63
2022/07/08 05:22:50;;;;;;;11.23;3.42;;;12.90;93.30;;;;;;5119334;27;20032;-62
2022/07/08 05:25:16;;;;;;;13.95;4.03;;;12.90;93.60;;;;;;5115439;27;20024;-63
2022/07/08 05:27:42;;;;;;;9.48;3.30;;;12.90;93.10;;;;;;5131954;27;20102;-64
2022/07/08 05:30:10;;;;;;;12.32;3.60;;;12.90;93.50;;;;;;5118883;27;20297;-63
2022/07/08 05:32:36;;;;;;;11.50;3.88;;;13.00;93.20;;;;;;5116805;27;20446;-63
2022/07/08 05:35:04;;;;;;;11.05;3.20;;;13.10;92.60;;;;;;5120987;27;20027;-63
2022/07/08 05:37:30;;;;;;;11.15;3.72;;;12.90;92.90;;;;;;5116396;27;20054;-63
2022/07/08 05:39:57;;;;;;;12.93;3.83;;;12.80;93.20;;;;;;5116719;27;20067;-63
2022/07/08 05:42:23;;;;;;;15.07;3.67;;;12.70;93.50;;;;;;5118042;27;20416;-63
2022/07/08 05:44:49;;;;;;;10.88;3.67;;;12.60;94.00;;;;;;5107098;27;20452;-63
2022/07/08 05:47:14;;;;;;;14.02;3.42;;;12.70;93.60;;;;;;5119751;27;20085;-63
2022/07/08 05:49:43;;;;;;;9.82;3.20;;;12.80;93.20;;;;;;5116617;27;20076;-64
2022/07/08 05:52:09;;;;;;;12.43;3.30;;;12.80;93.50;;;;;;5117831;27;20043;-64
2022/07/08 05:54:35;;;;;;;13.20;3.88;;;12.90;93.70;;;;;;5116453;27;20038;-63
2022/07/08 05:57:01;;;;;;;13.38;3.83;;;12.90;93.00;;;;;;5115365;27;20042;-63
2022/07/08 05:59:28;;;;;;;13.85;3.33;;;12.90;93.40;;;;;;5119502;27;20098;-63
2022/07/08 06:01:55;;;;;;;10.02;3.92;;;13.00;93.80;;;;;;5116532;27;20116;-64
2022/07/08 06:04:20;;;;;;;10.85;3.47;;;13.20;93.80;;;;;;5108073;28;20028;-64
2022/07/08 06:06:46;;;;;;;8.52;3.38;;;13.20;93.00;;;;;;5117015;27;20072;-63
2022/07/08 06:09:12;;;;;;;12.82;3.53;;;13.40;92.20;;;;;;5110582;27;20069;-64
2022/07/08 06:11:38;;;;;;;11.43;3.60;;;13.70;92.00;;;;;;5119549;27;20027;-63
2022/07/08 06:14:03;;;;;;;15.43;4.35;;;13.90;91.20;;;;;;5126952;27;20019;-64
2022/07/08 06:16:29;;;;;;;13.43;3.75;;;13.90;91.20;;;;;;5122617;27;20138;-63
2022/07/08 06:18:55;;;;;;;10.48;3.80;;;13.90;91.30;;;;;;5121596;27;20423;-63
2022/07/08 06:21:22;;;;;;;13.57;4.60;;;14.10;90.90;;;;;;5115548;27;20110;-63
2022/07/08 06:23:48;;;;;;;14.70;5.40;;;14.20;90.60;;;;;;5113722;27;20138;-63
2022/07/08 06:26:14;;;;;;;10.73;3.90;;;14.10;89.80;;;;;;5113603;28;20384;-64
2022/07/08 06:28:40;;;;;;;12.05;3.50;;;14.10;90.50;;;;;;5117697;27;20023;-63
2022/07/08 06:31:06;;;;;;;9.93;3.55;;;14.30;90.20;;;;;;5119772;27;20404;-63
2022/07/08 06:33:31;;;;;;;11.57;2.65;;;14.30;89.70;;;;;;5119888;28;20023;-63
2022/07/08 06:35:57;;;;;;;15.52;3.70;;;14.40;89.60;;;;;;5124757;28;20076;-63
2022/07/08 06:38:22;;;;;;;10.68;3.28;;;14.60;89.00;;;;;;5121486;28;20146;-64
2022/07/08 06:40:48;;;;;;;9.40;2.83;;;14.70;88.60;;;;;;5120485;28;20028;-63
2022/07/08 06:43:14;;;;;;;13.50;3.08;;;14.70;88.20;;;;;;5112237;28;20320;-63
2022/07/08 06:45:39;;;;;;;16.17;3.78;;;14.70;88.30;;;;;;5110127;28;20428;-63
2022/07/08 06:48:05;;;;;;;10.05;3.17;;;14.70;88.90;;;;;;5117619;28;21666;-63
2022/07/08 06:50:31;;;;;;;13.63;3.70;;;14.60;89.40;;;;;;5112612;28;20103;-63
2022/07/08 06:52:57;;;;;;;11.98;2.78;;;14.70;88.80;;;;;;5118975;28;20317;-64
2022/07/08 06:55:22;;;;;;;9.00;2.60;;;14.90;87.30;;;;;;5121533;28;20037;-64
2022/07/08 06:57:51;;;;;;;10.68;2.85;;;15.20;87.30;;;;;;5114605;28;20340;-64
2022/07/08 07:00:17;;;;;;;14.30;2.92;;;15.50;86.80;;;;;;5112421;28;20088;-63
2022/07/08 07:02:42;;;;;;;9.52;2.70;;;15.90;84.80;;;;;;5114728;28;20417;-64
2022/07/08 07:05:08;;;;;;;13.52;3.00;;;15.60;84.10;;;;;;5111584;28;20100;-64
2022/07/08 07:07:34;;;;;;;11.60;3.15;;;15.60;85.70;;;;;;5125805;28;20326;-63
2022/07/08 07:10:00;;;;;;;17.27;3.47;;;15.80;84.90;;;;;;5119367;28;20111;-64
2022/07/08 07:12:26;;;;;;;10.07;2.83;;;16.00;84.50;;;;;;5119889;28;20022;-64
2022/07/08 07:14:52;;;;;;;11.25;2.88;;;16.40;82.90;;;;;;5119232;28;20035;-64
2022/07/08 07:17:21;;;;;;;9.95;2.47;;;16.80;82.70;;;;;;5119787;28;20023;-64
2022/07/08 07:19:48;;;;;;;9.95;3.00;;;16.90;80.70;;;;;;5117188;28;20043;-64
2022/07/08 07:22:15;;;;;;;9.55;2.53;;;16.70;81.40;;;;;;5121885;27;20480;-63
2022/07/08 07:24:45;;;;;;;9.20;2.70;;;16.50;82.20;;;;;;5121425;27;20019;-63
2022/07/08 07:27:11;;;;;;;10.52;3.28;;;16.50;81.90;;;;;;5123583;27;20076;-63
2022/07/08 07:29:37;;;;;;;7.93;2.20;;;16.70;81.70;;;;;;5120470;27;20412;-63
2022/07/08 07:32:03;;;;;;;8.82;2.53;;;17.10;80.40;;;;;;5116791;28;20027;-64
2022/07/08 07:34:28;;;;;;;9.02;2.30;;;17.70;79.80;;;;;;5131170;27;20051;-66
2022/07/08 07:36:54;;;;;;;8.70;2.40;;;18.80;76.70;;;;;;5118923;27;20110;-66
2022/07/08 07:39:20;;;;;;;9.45;2.17;;;19.50;73.60;;;;;;5125648;27;20024;-64
2022/07/08 07:41:45;;;;;;;9.25;2.30;;;19.60;73.80;;;;;;5116314;28;20023;-65
2022/07/08 07:44:14;;;;;;;9.77;2.28;;;19.50;73.80;;;;;;5118230;27;20047;-65
2022/07/08 07:46:40;;;;;;;8.05;2.35;;;19.50;72.60;;;;;;5117248;28;20068;-64
2022/07/08 07:49:06;;;;;;;10.98;2.75;;;19.80;73.80;;;;;;5117205;27;20020;-65
2022/07/08 07:51:32;;;;;;;7.68;2.42;;;19.90;72.20;;;;;;5120720;27;20038;-64
2022/07/08 07:53:58;;;;;;;11.20;2.90;;;19.30;73.40;;;;;;5120019;27;20038;-64
2022/07/08 07:56:24;;;;;;;9.85;2.95;;;18.90;73.50;;;;;;5121332;27;20024;-64
2022/07/08 07:58:50;;;;;;;10.38;2.58;;;18.10;75.60;;;;;;5118760;27;20114;-64
2022/07/08 08:01:15;;;;;;;11.60;2.63;;;17.70;77.20;;;;;;5130069;27;20348;-64
2022/07/08 08:03:41;;;;;;;7.57;2.30;;;18.40;76.90;;;;;;5125068;27;20031;-64
2022/07/08 08:06:07;;;;;;;8.98;2.72;;;18.80;74.90;;;;;;5118320;27;20077;-64
2022/07/08 08:08:34;;;;;;;6.88;1.92;;;19.10;73.90;;;;;;5119466;27;20015;-64
2022/07/08 08:11:00;;;;;;;11.13;2.38;;;18.60;75.80;;;;;;5113706;28;20419;-64
2022/07/08 08:13:27;;;;;;;10.32;2.72;;;18.80;75.10;;;;;;5128095;27;20024;-64
2022/07/08 08:15:53;;;;;;;9.48;2.42;;;18.90;74.70;;;;;;5118104;28;20396;-64
2022/07/08 08:18:21;;;;;;;9.82;2.75;;;19.20;73.50;;;;;;5117976;28;20106;-65
2022/07/08 08:20:46;;;;;;;9.50;2.40;;;19.40;73.60;;;;;;5121788;27;20038;-64
2022/07/08 08:23:12;;;;;;;7.03;2.03;;;19.60;72.40;;;;;;5123723;27;20043;-64
2022/07/08 08:25:38;;;;;;;11.13;2.60;;;18.90;73.50;;;;;;5125638;27;20023;-63
2022/07/08 08:28:04;;;;;;;8.60;2.25;;;18.50;74.10;;;;;;5121051;27;20038;-64
2022/07/08 08:30:30;;;;;;;8.00;2.08;;;18.70;73.30;;;;;;5118378;27;20024;-64
2022/07/08 08:32:57;;;;;;;10.40;3.25;;;18.70;72.70;;;;;;5123850;27;20780;-64
2022/07/08 08:35:23;;;;;;;13.60;3.03;;;18.20;73.40;;;;;;5118276;27;20036;-64
2022/07/08 08:37:49;;;;;;;8.60;2.17;;;17.50;75.40;;;;;;5119454;27;20394;-64
2022/07/08 08:40:15;;;;;;;10.18;2.65;;;17.00;76.60;;;;;;5122019;27;20023;-64
2022/07/08 08:42:42;;;;;;;9.48;3.35;;;16.80;77.20;;;;;;5120825;27;20443;-64
2022/07/08 08:45:11;;;;;;;9.68;2.83;;;17.50;75.50;;;;;;5128582;27;20046;-64
2022/07/08 08:47:37;;;;;;;8.50;2.38;;;18.10;74.80;;;;;;5123720;27;20042;-64
2022/07/08 08:52:53;;;;;;;8.25;2.53;;;18.20;74.60;;;;;;5111937;27;20093;-64
2022/07/08 08:55:30;;;;;;;6.90;2.10;;;18.30;73.50;;;;;;5126286;27;20053;-64
2022/07/08 08:58:01;;;;;;;7.63;2.53;;;18.50;73.40;;;;;;5123111;27;20077;-64
2022/07/08 09:00:28;;;;;;;7.10;1.90;;;18.40;73.30;;;;;;5116436;27;20023;-64
2022/07/08 09:02:55;;;;;;;8.80;2.65;;;18.60;73.90;;;;;;5124636;27;20031;-63
2022/07/08 09:05:23;;;;;;;8.90;2.60;;;19.10;72.70;;;;;;5134970;27;20019;-64
2022/07/08 09:07:49;;;;;;;13.68;2.58;;;19.30;71.70;;;;;;5124385;27;20023;-63
2022/07/08 09:10:16;;;;;;;9.27;2.45;;;19.10;73.30;;;;;;5117839;27;20056;-64
2022/07/08 09:12:59;;;;;;;9.82;2.50;;;19.50;72.80;;;;;;5126637;27;20126;-64
2022/07/08 09:15:41;;;;;;;10.45;2.50;;;19.40;72.00;;;;;;5111672;27;20102;-64
2022/07/08 09:18:12;;;;;;;11.23;2.38;;;19.20;72.40;;;;;;5115806;27;20045;-64
2022/07/08 09:20:49;;;;;;;8.98;2.65;;;20.00;71.00;;;;;;5116639;27;20443;-64
2022/07/08 09:23:29;;;;;;;10.13;2.88;;;21.80;67.00;;;;;;5119528;27;20167;-64
2022/07/08 09:26:03;;;;;;;9.38;2.47;;;22.60;65.40;;;;;;5126278;27;20338;-63
2022/07/08 09:28:45;;;;;;;11.40;2.15;;;23.80;61.50;;;;;;5119567;27;20047;-64
2022/07/08 09:31:13;;;;;;;8.10;2.20;;;23.80;60.50;;;;;;5114358;27;20098;-64
2022/07/08 09:33:40;;;;;;;7.72;2.05;;;24.80;60.40;;;;;;5117298;27;20420;-64
2022/07/08 09:36:07;;;;;;;8.68;2.25;;;24.40;59.70;;;;;;5125571;27;20038;-64
2022/07/08 09:38:35;;;;;;;7.72;2.17;;;22.80;63.30;;;;;;5117131;27;20050;-64
2022/07/08 09:41:02;;;;;;;8.45;2.08;;;21.60;65.10;;;;;;5123369;27;20019;-64
2022/07/08 09:43:29;;;;;;;9.52;2.38;;;20.70;67.10;;;;;;5122519;27;20019;-65
2022/07/08 09:46:02;;;;;;;7.65;2.17;;;20.20;68.50;;;;;;5116119;27;20397;-64
2022/07/08 09:48:29;;;;;;;9.77;2.05;;;21.50;66.70;;;;;;5116866;27;20443;-64
2022/07/08 09:50:55;;;;;;;6.85;2.05;;;22.80;64.70;;;;;;5113896;27;20047;-64
2022/07/08 09:53:24;;;;;;;7.13;1.88;;;23.10;62.10;;;;;;5125448;27;20027;-64
2022/07/08 09:55:51;;;;;;;11.07;2.35;;;21.80;65.30;;;;;;5124851;27;20455;-63
2022/07/08 09:58:28;;;;;;;10.38;2.42;;;21.60;66.20;;;;;;5124394;27;20424;-64
2022/07/08 10:00:55;;;;;;;10.18;2.35;;;22.20;63.40;;;;;;5115152;27;20038;-64
2022/07/08 10:03:22;;;;;;;9.88;2.80;;;23.00;63.00;;;;;;5119385;27;20023;-64
2022/07/08 10:05:48;;;;;;;7.10;1.75;;;23.00;61.10;;;;;;5116874;27;20019;-64
2022/07/08 10:08:15;;;;;;;6.32;1.95;;;22.80;62.20;;;;;;5113474;28;20024;-64
2022/07/08 10:10:43;;;;;;;7.55;2.13;;;23.20;62.40;;;;;;5113086;28;20046;-64
2022/07/08 10:13:09;;;;;;;9.90;2.22;;;24.30;60.80;;;;;;5115828;27;20347;-65
2022/07/08 10:15:37;;;;;;;8.63;2.05;;;24.90;58.70;;;;;;5117601;27;20106;-64
2022/07/08 10:18:09;;;;;;;8.48;2.20;;;24.80;60.50;;;;;;5116623;28;20042;-64
2022/07/08 10:20:38;;;;;;;7.10;1.92;;;24.20;59.40;;;;;;5114839;28;20031;-64
2022/07/08 10:23:10;;;;;;;8.57;2.08;;;22.40;62.20;;;;;;5109207;28;20031;-63
2022/07/08 10:25:37;;;;;;;7.00;1.85;;;21.10;66.00;;;;;;5113833;28;20436;-64
2022/07/08 10:28:12;;;;;;;10.30;2.30;;;20.60;67.30;;;;;;5118367;27;20039;-63
2022/07/08 10:30:49;;;;;;;9.05;2.53;;;20.40;67.80;;;;;;5112398;28;20023;-66
2022/07/08 10:33:25;;;;;;;7.30;2.28;;;20.40;67.70;;;;;;5114312;28;20031;-66
2022/07/08 10:36:03;;;;;;;9.13;2.55;;;20.50;69.50;;;;;;5116472;28;20062;-65
2022/07/08 10:38:40;;;;;;;8.93;2.60;;;21.10;66.50;;;;;;5110330;28;20077;-64
2022/07/08 10:41:18;;;;;;;10.38;2.22;;;21.80;67.50;;;;;;5113675;28;20032;-64
2022/07/08 10:43:52;;;;;;;12.63;5.50;;;23.40;62.30;;;;;;5114480;28;20031;-64
2022/07/08 10:46:18;;;;;;;7.63;1.70;;;24.40;60.20;;;;;;5102842;28;20027;-63
2022/07/08 10:48:44;;;;;;;5.97;1.80;;;24.40;59.60;;;;;;5114469;28;20032;-65
2022/07/08 10:51:24;;;;;;;8.45;2.13;;;23.70;60.80;;;;;;5113168;28;20019;-64
2022/07/08 10:53:54;;;;;;;10.48;2.55;;;23.20;63.10;;;;;;5111090;28;20020;-64
2022/07/08 10:56:58;;;;;;;6.75;2.22;;;22.40;63.40;;;;;;5112976;28;20024;-64
2022/07/08 10:59:31;;;;;;;6.37;2.10;;;21.20;66.10;;;;;;5118473;28;20028;-64
2022/07/08 11:02:08;;;;;;;13.52;3.30;;;20.90;66.90;;;;;;5118804;28;20988;-64
2022/07/08 11:04:33;;;;;;;9.00;2.65;;;21.70;65.80;;;;;;5117236;28;20032;-64
2022/07/08 11:07:17;;;;;;;6.65;1.80;;;22.50;65.50;;;;;;5117925;28;20332;-65
2022/07/08 11:09:48;;;;;;;9.45;2.08;;;23.10;63.40;;;;;;5112804;28;20028;-64
2022/07/08 11:12:16;;;;;;;8.45;1.98;;;22.40;62.60;;;;;;5116622;27;20082;-63
2022/07/08 11:14:47;;;;;;;8.35;2.58;;;21.30;65.60;;;;;;5119370;28;20488;-64
2022/07/08 11:17:14;;;;;;;6.00;2.00;;;21.40;65.80;;;;;;5132636;27;20034;-64
2022/07/08 11:19:46;;;;;;;5.45;1.75;;;21.50;65.00;;;;;;5119363;28;20075;-64
2022/07/08 11:22:13;;;;;;;5.15;1.70;;;21.90;63.20;;;;;;5116720;28;20035;-64
2022/07/08 11:24:43;;;;;;;11.15;2.17;;;22.80;62.10;;;;;;5118437;27;20027;-64
2022/07/08 11:27:10;;;;;;;9.75;2.03;;;23.20;62.00;;;;;;5119856;27;20058;-64
2022/07/08 11:29:36;;;;;;;6.75;2.05;;;22.60;62.30;;;;;;5116164;27;20026;-64
2022/07/08 11:32:04;;;;;;;9.60;2.22;;;22.50;62.90;;;;;;5114623;27;20036;-64
2022/07/08 11:34:31;;;;;;;7.28;2.05;;;22.90;64.60;;;;;;5114909;27;20043;-63
2022/07/08 11:36:58;;;;;;;9.75;2.22;;;23.60;61.40;;;;;;5114912;27;20324;-64
2022/07/08 11:39:25;;;;;;;10.38;1.90;;;23.80;60.30;;;;;;5114703;27;20019;-64
2022/07/08 11:41:52;;;;;;;9.95;2.20;;;23.60;61.30;;;;;;5117008;27;20429;-63
2022/07/08 11:44:20;;;;;;;5.78;1.80;;;22.60;63.80;;;;;;5115908;27;20048;-63
2022/07/08 11:46:46;;;;;;;7.53;1.65;;;22.50;62.70;;;;;;5121932;27;20157;-64
2022/07/08 11:49:16;;;;;;;7.55;1.70;;;22.80;63.70;;;;;;5115676;27;20027;-64
2022/07/08 11:51:48;;;;;;;6.45;1.90;;;22.90;61.10;;;;;;5114710;28;20095;-64
2022/07/08 11:54:15;;;;;;;7.38;2.13;;;22.60;61.70;;;;;;5117400;28;20039;-64
2022/07/08 11:56:41;;;;;;;8.50;2.00;;;22.70;61.90;;;;;;5117569;27;20147;-63
2022/07/08 11:59:08;;;;;;;5.60;1.88;;;22.50;61.00;;;;;;5115971;28;20015;-64
2022/07/08 12:01:35;;;;;;;9.25;1.95;;;22.20;62.10;;;;;;5116053;28;20038;-64
2022/07/08 12:04:04;;;;;;;6.90;1.80;;;22.60;62.30;;;;;;5114061;27;20316;-64
2022/07/08 12:06:34;;;;;;;8.15;1.95;;;23.20;59.90;;;;;;5119420;27;20328;-63
2022/07/08 12:09:09;;;;;;;8.38;2.03;;;22.60;60.90;;;;;;5116176;27;20022;-63
2022/07/08 12:11:48;;;;;;;7.03;1.70;;;22.40;62.20;;;;;;5113144;27;20420;-64
2022/07/08 12:14:15;;;;;;;8.52;1.80;;;22.30;61.40;;;;;;5115177;27;20039;-63
2022/07/08 12:16:52;;;;;;;4.80;1.33;;;22.70;62.60;;;;;;5108446;28;20059;-64
2022/07/08 12:19:45;;;;;;;7.28;2.10;;;22.90;63.20;;;;;;5115945;27;20054;-64
2022/07/08 12:22:13;;;;;;;8.15;2.13;;;23.70;60.90;;;;;;5112115;27;20302;-64
2022/07/08 12:24:41;;;;;;;8.55;1.90;;;23.30;60.20;;;;;;5111324;27;20109;-64
2022/07/08 12:27:16;;;;;;;7.13;1.98;;;22.90;61.60;;;;;;5117308;28;20016;-64
2022/07/08 12:29:42;;;;;;;13.30;2.25;;;23.30;61.20;;;;;;5116235;27;20463;-64
2022/07/08 12:32:09;;;;;;;7.40;1.48;;;22.90;61.10;;;;;;5114111;27;20024;-64
2022/07/08 12:34:35;;;;;;;7.43;1.70;;;22.30;62.10;;;;;;5120058;27;20344;-64
2022/07/08 12:37:15;;;;;;;6.97;1.65;;;22.40;61.60;;;;;;5119650;27;20058;-64
2022/07/08 12:39:41;;;;;;;6.82;1.77;;;22.50;61.60;;;;;;5115806;27;20028;-65
2022/07/08 12:42:07;;;;;;;6.70;1.88;;;23.10;62.80;;;;;;5117170;28;20072;-65
2022/07/08 12:44:36;;;;;;;6.53;2.10;;;23.20;60.80;;;;;;5115211;27;20047;-63
2022/07/08 12:47:04;;;;;;;8.02;1.90;;;23.10;60.90;;;;;;5124138;27;20415;-64